Greenway, AR (72430)

3:39 PM CDT on May 25, 2015 (GMT -0500)
East Linden Circle | | Change Station
CLOSE
Current Station
Personal Weather Station
Location: Kennett, MO
Elevation: 262 ft
Nearby Weather Stations

Elev 262 ft 36.23 °N, 90.07 °W | Updated 3 minutes ago

Overcast
Overcast
79.3 °F
Feels Like 82 °F
N
2.0
Wind Variable Wind from SE
Gusts 2.0 mph

Today
High -- | Low -- °F
--% Chance of Precip.
Yesterday
High -- | Low -- °F
Precip. -- in
5:47 AM 8:08 PM
Waxing Crescent, 51% visible
Pressure 30.01 in
Visibility 10.0 miles
Clouds Scattered Clouds 2600 ft
Mostly Cloudy 3900 ft
Heat Index 82 °F
Dew Point 71 °F
Humidity 76%
Rainfall 0.22 in
Snow Depth Not available.
UV 5 out of 12
Pollen 1.90 out of 12
Air Quality Not available.
Flu Activity No Activity
METAR KPOF 251953Z AUTO 20009KT 10SM SCT026 BKN039 26/21 A3002 RMK AO2 RAB15E33 SLP160 P0007 T02610211

More Conditions Fewer Conditions

Pressure 30.01 in
Visibility 10.0 miles
Clouds Scattered Clouds 2600 ft
Mostly Cloudy 3900 ft
Heat Index 82 °F
Dew Point 71 °F
Humidity 76%
Rainfall 0.22 in
Snow Depth Not available.
UV 5 out of 12
Pollen 1.90 out of 12
Air Quality Not available.
Flu Activity No Activity
METAR KPOF 251953Z AUTO 20009KT 10SM SCT026 BKN039 26/21 A3002 RMK AO2 RAB15E33 SLP160 P0007 T02610211

More Conditions Fewer Conditions

10-Day Weather Forecast

Almanac

Astronomy

May. 25, 2015 Rise Set
Actual Time
Civil Twilight
Nautical Twilight
Astronomical Twilight
Moon
Length of Visible Light
Length of Day
Tomorrow will be .
, % of the Moon is Illuminated

Today's Extremes

State Highs State Lows

Community

WunderPhotos

Upload Photos

1,824,120 photos uploaded!

WunderBlogs® & News

Nearby

Air Quality

  Air Quality AQ Index Pollutant
Not available.

Snow Depth

Station Depth Elevation

Earthquake Activity

City Distance Mag. Time & Date
Minimum magnitude displayed is 2.5.

Coastal Water Temperatures

Place Temperature

Stations

Nearby Weather Stations

Station Location Temp. Windchill Dew Point Humidity Wind Precip. Elev Updated Type